Share

Artas, SD

1:00 AM CDT on April 24, 2014 (GMT -0500)
Eureka, South Dakota (KSDEUREK2) Elev 1871 ft | 45.77 °N, 99.62 °W | Change Station
Active Advisory: Fire Weather Warning

Current weather conditions updated 12 minutes ago

Clear
Clear
42.1 °F
Feels Like 42 °F
N
2.0
Wind Variable Wind from ENE
Gusts 4.0 mph
Sunrise 6:36 AM
Sunset 8:37 PM
Moon Waning Crescent

Today is forecast to be Warmer than yesterday.

Pressure 29.74 in
Visibility 7.0 miles
Clouds Clear
Windchill 42 °F
Dew Point 39 °F
Humidity 90%
Rainfall 0.00 in
Snow Depth Not available.
UV 0 out of 16
Pollen 7.60 out of 12
Air Quality Not available.
Flu Activity Sporadic
METAR K7L2 240555Z AUTO 00000KT 7SM CLR 03/03 A2974 RMK AO2 PWINO PNO

More Conditions Fewer Conditions

Pressure 29.74 in
Visibility 7.0 miles
Clouds Clear
Windchill 42 °F
Dew Point 39 °F
Humidity 90%
Rainfall 0.00 in
Snow Depth Not available.
UV 0 out of 16
Pollen 7.60 out of 12
Air Quality Not available.
Flu Activity Sporadic
METAR K7L2 240555Z AUTO 00000KT 7SM CLR 03/03 A2974 RMK AO2 PWINO PNO

More Conditions Fewer Conditions

10-Day Weather Forecast

Almanac

Astronomy

Apr. 24, 2014 Rise Set
Actual Time 6:36 AM CDT 8:37 PM CDT
Civil Twilight 6:04 AM CDT 9:09 PM CDT
Nautical Twilight 5:25 AM CDT 9:48 PM CDT
Astronomical Twilight 4:42 AM CDT 10:32 PM CDT
Moon 4:05 AM CDT 3:39 PM CDT
Length of Visible Light 15h 04m
Length of Day
14h 00m
Tomorrow will be 2m 58s longer.
Waning Crescent, 29% of the Moon is Illuminated
Today
Waning Crescent
Apr 29
New
May 6
First Quarter
May 14
Full
May 21
Last Quarter

Today's Extremes

State Highs State Lows

Community

  • Stacked
    Stacked
  • clouds approaching Red Sox Nation
    clouds approaching Red Sox Nation
  • Balance
    Balance
  • Nestled In
    Nestled In
  • Stunning Sunrise
    Stunning Sunrise

WunderPhotos

Upload Photos

1,704,566 photos uploaded!

WunderBlogs® & News

Nearby

Snow Depth

Station Depth Elevation
North Rapid Creek 10 in 6130 ft
Blind Park 10 in 6890 ft

Coastal Water Temperatures

Place Temperature
No Stations Reporting

Earthquake Activity

City Distance Mag. Time & Date
No recent earthquake activity has been reported nearby.
Minimum magnitude displayed is 2.5.

Nearby Weather Stations

Station Location Temp. Windchill Dew Point Humidity Wind Precip. Elev Updated Type
Eureka, South Dakota, Eureka, SD 42.1 °F 42 °F 39 °F 90% ENE  at  2.0 mph 0.00 in / hr 1871 ft 12:47 AM CDT Normal
RAWS SAND LAKE SD, Longlake, SD 42 °F 38 °F 40 °F 93% East  at  6 mph 0.00 in / hr 2029 ft 12:15 AM CDT MADIS

Show More Stations Show Fewer Stations

What do you think?

We're not finished. Please let us know what you like, what you don't like, and what you are still missing.